Santa Rosa — A8ZS7 — position and weather

sailwx.info

Track history (hours):
 
Tides and Currents Weather Stations Pressure Air Temp Water Temp Dewpoint Dewpoint Depression Visibility Wind Speed Wind Dir Waves Ship Positions

Santa Rosa

Last reported at 2014-Sep-01 08:16 UTC. Time now 2014-Sep-01 21:25 UTC.
Position S 35°02' W 057°10'.

Length 300 m; draft 9.2 m.

Type: Ship (hazmat cat D). MMSI: 636092266.

Date/timePositionNaut miles runAvg speedWind from/ knotsBaromVisibWave heightAir tempDewpointWater temp
2014-Sep-01 08:16S 35°02' W 057°10'20 4.7
2014-Sep-01 04:05S 34°49' W 057°28'814.5
2014-Sep-01 03:34S 34°45' W 057°36'1110.5
2014-Sep-01 02:33S 34°45' W 057°49'1211.6
2014-Sep-01 01:33S 34°40' W 058°01'1212.4
2014-Sep-01 00:33S 34°36' W 058°16'5 2.5
2014-Aug-31 22:20S 34°35' W 058°22'0 0.0
2014-Aug-31 21:04S 34°35' W 058°22'0 0.0
2014-Aug-31 20:31S 34°35' W 058°22'0 0.0
2014-Aug-31 18:22S 34°35' W 058°22'0 0.0
2014-Aug-31 17:28S 34°35' W 058°22'0 0.0
2014-Aug-31 16:28S 34°35' W 058°22'0 0.0
2014-Aug-31 15:28S 34°35' W 058°22'0 0.0
2014-Aug-31 14:31S 34°35' W 058°22'0 0.0
2014-Aug-31 13:28S 34°35' W 058°22'0 0.0
2014-Aug-31 12:31S 34°35' W 058°22'0 0.0
2014-Aug-31 11:31S 34°35' W 058°22'0 0.0
2014-Aug-31 10:25S 34°35' W 058°22'0 0.0
2014-Aug-31 09:31S 34°35' W 058°22'0 0.0
2014-Aug-31 08:31S 34°35' W 058°22'0 0.0
2014-Aug-31 07:31S 34°35' W 058°22'0 0.0
2014-Aug-31 06:28S 34°35' W 058°22'0 0.0
2014-Aug-31 04:28S 34°35' W 058°22'0 0.0
2014-Aug-31 03:28S 34°35' W 058°22'0 0.0
2014-Aug-30 23:28S 34°35' W 058°22'0 0.0
2014-Aug-30 22:31S 34°35' W 058°22'0 0.0
2014-Aug-30 21:31S 34°35' W 058°22'0 0.0
2014-Aug-30 20:31S 34°35' W 058°22'0 0.0
2014-Aug-30 19:31S 34°35' W 058°22'0 0.0
2014-Aug-30 18:31S 34°35' W 058°22'0 0.0
2014-Aug-30 17:31S 34°35' W 058°22'0 0.0
2014-Aug-30 15:31S 34°35' W 058°22'0 0.0
2014-Aug-30 14:19S 34°35' W 058°22'0 0.0
2014-Aug-30 13:31S 34°35' W 058°22'0 0.0
2014-Aug-30 12:31S 34°35' W 058°22'0 0.0
2014-Aug-30 05:31S 34°35' W 058°22'0 0.0
2014-Aug-30 04:28S 34°35' W 058°22'0 0.0
2014-Aug-30 03:28S 34°35' W 058°22'0 0.0
2014-Aug-30 02:31S 34°35' W 058°22'0 0.0
2014-Aug-30 01:31S 34°35' W 058°22'0 0.0
2014-Aug-30 00:28S 34°35' W 058°22'0 0.0
2014-Aug-29 23:31S 34°35' W 058°22'0 0.0
2014-Aug-29 22:22S 34°35' W 058°22'0 0.0
2014-Aug-29 21:28S 34°35' W 058°22'0 0.0
2014-Aug-29 20:16S 34°35' W 058°22'0 0.0
2014-Aug-29 19:16S 34°35' W 058°22'0 0.0
2014-Aug-29 18:13S 34°35' W 058°22'0 0.0
2014-Aug-29 17:28S 34°35' W 058°22'0 0.0
2014-Aug-29 16:31S 34°35' W 058°22'  
2014-Aug-27 12:00S 35°00' W 055°12'13511.2 220 / 221018.410.8 9.0 2.610.0
2014-Aug-27 00:00S 34°06' W 052°42'   240 / 301008.4 5.4 11.0 6.711.0
2014-Aug-24 12:00S 15°36' W 048°06'56046.7 230 / 31015.4 5.4 20.016.618.0
2014-Aug-24 00:00S 24°54' W 047°12'76 2.7 030 / 111016.210.8 21.016.419.0
2014-Aug-22 20:14S 23°56' W 046°19'0 0.0
2014-Aug-22 19:32S 23°56' W 046°19'0 0.0
2014-Aug-22 18:32S 23°56' W 046°19'0 0.0
2014-Aug-22 17:32S 23°56' W 046°19'0 0.2
2014-Aug-22 16:33S 23°56' W 046°19'5 4.9
2014-Aug-22 15:33S 24°00' W 046°20'10 9.6
2014-Aug-22 14:31S 24°10' W 046°23'5 2.4
2014-Aug-22 12:21S 24°15' W 046°20'1211.3
2014-Aug-22 11:16S 24°26' W 046°16'4214.3
2014-Aug-22 08:22S 24°35' W 045°31'  
Track history (hours):
 
Tides and Currents Weather Stations Pressure Air Temp Water Temp Dewpoint Dewpoint Depression Visibility Wind Speed Wind Dir Waves Ship Positions

Santa Rosa

Last reported at 2014-Sep-01 08:16 UTC. Time now 2014-Sep-01 21:25 UTC.
Position S 35°02' W 057°10'.

Length 300 m; draft 9.2 m.

Type: Ship (hazmat cat D). MMSI: 636092266.

Date/timePositionNaut miles runAvg speedWind from/ knotsBaromVisibWave heightAir tempDewpointWater temp
2014-Sep-01 08:16S 35°02' W 057°10'20 4.7
2014-Sep-01 04:05S 34°49' W 057°28'814.5
2014-Sep-01 03:34S 34°45' W 057°36'1110.5
2014-Sep-01 02:33S 34°45' W 057°49'1211.6
2014-Sep-01 01:33S 34°40' W 058°01'1212.4
2014-Sep-01 00:33S 34°36' W 058°16'5 2.5
2014-Aug-31 22:20S 34°35' W 058°22'0 0.0
2014-Aug-31 21:04S 34°35' W 058°22'0 0.0
2014-Aug-31 20:31S 34°35' W 058°22'0 0.0
2014-Aug-31 18:22S 34°35' W 058°22'0 0.0
2014-Aug-31 17:28S 34°35' W 058°22'0 0.0
2014-Aug-31 16:28S 34°35' W 058°22'0 0.0
2014-Aug-31 15:28S 34°35' W 058°22'0 0.0
2014-Aug-31 14:31S 34°35' W 058°22'0 0.0
2014-Aug-31 13:28S 34°35' W 058°22'0 0.0
2014-Aug-31 12:31S 34°35' W 058°22'0 0.0
2014-Aug-31 11:31S 34°35' W 058°22'0 0.0
2014-Aug-31 10:25S 34°35' W 058°22'0 0.0
2014-Aug-31 09:31S 34°35' W 058°22'0 0.0
2014-Aug-31 08:31S 34°35' W 058°22'0 0.0
2014-Aug-31 07:31S 34°35' W 058°22'0 0.0
2014-Aug-31 06:28S 34°35' W 058°22'0 0.0
2014-Aug-31 04:28S 34°35' W 058°22'0 0.0
2014-Aug-31 03:28S 34°35' W 058°22'0 0.0
2014-Aug-30 23:28S 34°35' W 058°22'0 0.0
2014-Aug-30 22:31S 34°35' W 058°22'0 0.0
2014-Aug-30 21:31S 34°35' W 058°22'0 0.0
2014-Aug-30 20:31S 34°35' W 058°22'0 0.0
2014-Aug-30 19:31S 34°35' W 058°22'0 0.0
2014-Aug-30 18:31S 34°35' W 058°22'0 0.0
2014-Aug-30 17:31S 34°35' W 058°22'0 0.0
2014-Aug-30 15:31S 34°35' W 058°22'0 0.0
2014-Aug-30 14:19S 34°35' W 058°22'0 0.0
2014-Aug-30 13:31S 34°35' W 058°22'0 0.0
2014-Aug-30 12:31S 34°35' W 058°22'0 0.0
2014-Aug-30 05:31S 34°35' W 058°22'0 0.0
2014-Aug-30 04:28S 34°35' W 058°22'0 0.0
2014-Aug-30 03:28S 34°35' W 058°22'0 0.0
2014-Aug-30 02:31S 34°35' W 058°22'0 0.0
2014-Aug-30 01:31S 34°35' W 058°22'0 0.0
2014-Aug-30 00:28S 34°35' W 058°22'0 0.0
2014-Aug-29 23:31S 34°35' W 058°22'0 0.0
2014-Aug-29 22:22S 34°35' W 058°22'0 0.0
2014-Aug-29 21:28S 34°35' W 058°22'0 0.0
2014-Aug-29 20:16S 34°35' W 058°22'0 0.0
2014-Aug-29 19:16S 34°35' W 058°22'0 0.0
2014-Aug-29 18:13S 34°35' W 058°22'0 0.0
2014-Aug-29 17:28S 34°35' W 058°22'0 0.0
2014-Aug-29 16:31S 34°35' W 058°22'  
2014-Aug-27 12:00S 35°00' W 055°12'13511.2 220 / 221018.410.8 9.0 2.610.0
2014-Aug-27 00:00S 34°06' W 052°42'   240 / 301008.4 5.4 11.0 6.711.0
2014-Aug-24 12:00S 15°36' W 048°06'56046.7 230 / 31015.4 5.4 20.016.618.0
2014-Aug-24 00:00S 24°54' W 047°12'76 2.7 030 / 111016.210.8 21.016.419.0
2014-Aug-22 20:14S 23°56' W 046°19'0 0.0
2014-Aug-22 19:32S 23°56' W 046°19'0 0.0
2014-Aug-22 18:32S 23°56' W 046°19'0 0.0
2014-Aug-22 17:32S 23°56' W 046°19'0 0.2
2014-Aug-22 16:33S 23°56' W 046°19'5 4.9
2014-Aug-22 15:33S 24°00' W 046°20'10 9.6
2014-Aug-22 14:31S 24°10' W 046°23'5 2.4
2014-Aug-22 12:21S 24°15' W 046°20'1211.3
2014-Aug-22 11:16S 24°26' W 046°16'4214.3
2014-Aug-22 08:22S 24°35' W 045°31'  

Dump ship's entire track history